sensor_id;sensor_type;location;lat;lon;timestamp;pressure;altitude;pressure_sealevel;temperature;humidity
18819;BME280;9537;45.594;9.294;2023-03-22T00:00:00;99603.72;;;10.90;71.82
18819;BME280;9537;45.594;9.294;2023-03-22T00:01:07;99610.34;;;10.86;72.05
18819;BME280;9537;45.594;9.294;2023-03-22T00:02:09;99614.63;;;10.87;72.02
18819;BME280;9537;45.594;9.294;2023-03-22T00:03:11;99612.28;;;10.92;71.78
18819;BME280;9537;45.594;9.294;2023-03-22T00:04:13;99608.81;;;10.91;71.89
18819;BME280;9537;45.594;9.294;2023-03-22T00:05:15;99600.53;;;10.94;71.85
18819;BME280;9537;45.594;9.294;2023-03-22T00:06:16;99603.19;;;10.94;71.85
18819;BME280;9537;45.594;9.294;2023-03-22T00:07:18;99609.47;;;10.93;72.18
18819;BME280;9537;45.594;9.294;2023-03-22T00:08:19;99597.09;;;10.94;72.12
18819;BME280;9537;45.594;9.294;2023-03-22T00:09:22;99601.72;;;10.92;72.25
18819;BME280;9537;45.594;9.294;2023-03-22T00:10:23;99597.09;;;10.94;71.99
18819;BME280;9537;45.594;9.294;2023-03-22T00:11:27;99601.00;;;10.98;72.00
18819;BME280;9537;45.594;9.294;2023-03-22T00:12:28;99602.66;;;10.99;71.91
18819;BME280;9537;45.594;9.294;2023-03-22T00:13:30;99603.66;;;10.98;71.81
18819;BME280;9537;45.594;9.294;2023-03-22T00:14:31;99603.66;;;10.98;71.90
18819;BME280;9537;45.594;9.294;2023-03-22T00:15:34;99599.66;;;11.02;71.54
18819;BME280;9537;45.594;9.294;2023-03-22T00:16:35;99603.78;;;11.04;71.42
18819;BME280;9537;45.594;9.294;2023-03-22T00:17:37;99597.03;;;11.02;71.16
18819;BME280;9537;45.594;9.294;2023-03-22T00:18:39;99603.19;;;10.94;71.13
18819;BME280;9537;45.594;9.294;2023-03-22T00:19:41;99601.59;;;10.85;71.90
18819;BME280;9537;45.594;9.294;2023-03-22T00:20:47;99594.19;;;10.80;72.07
18819;BME280;9537;45.594;9.294;2023-03-22T00:21:50;99601.13;;;10.81;71.98
18819;BME280;9537;45.594;9.294;2023-03-22T00:22:51;99598.56;;;10.73;72.36
18819;BME280;9537;45.594;9.294;2023-03-22T00:23:53;99601.81;;;10.75;72.28
18819;BME280;9537;45.594;9.294;2023-03-22T00:24:55;99604.31;;;10.77;72.53
18819;BME280;9537;45.594;9.294;2023-03-22T00:25:57;99601.13;;;10.81;72.57
18819;BME280;9537;45.594;9.294;2023-03-22T00:26:58;99595.84;;;10.81;72.46
18819;BME280;9537;45.594;9.294;2023-03-22T00:28:00;99597.66;;;10.81;72.52
18819;BME280;9537;45.594;9.294;2023-03-22T00:29:01;99600.50;;;10.79;72.51
18819;BME280;9537;45.594;9.294;2023-03-22T00:30:04;99597.53;;;10.74;72.58
18819;BME280;9537;45.594;9.294;2023-03-22T00:31:06;99600.69;;;10.70;72.81
18819;BME280;9537;45.594;9.294;2023-03-22T00:32:08;99601.06;;;10.67;72.73
18819;BME280;9537;45.594;9.294;2023-03-22T00:33:09;99602.16;;;10.72;72.45
18819;BME280;9537;45.594;9.294;2023-03-22T00:34:11;99598.25;;;10.68;72.52
18819;BME280;9537;45.594;9.294;2023-03-22T00:35:12;99599.22;;;10.67;72.68
18819;BME280;9537;45.594;9.294;2023-03-22T00:36:14;99598.59;;;10.65;72.72
18819;BME280;9537;45.594;9.294;2023-03-22T00:37:15;99605.22;;;10.61;73.17
18819;BME280;9537;45.594;9.294;2023-03-22T00:38:17;99602.28;;;10.56;72.97
18819;BME280;9537;45.594;9.294;2023-03-22T00:39:19;99590.88;;;10.55;73.11
18819;BME280;9537;45.594;9.294;2023-03-22T00:40:22;99591.06;;;10.54;73.20
18819;BME280;9537;45.594;9.294;2023-03-22T00:41:23;99595.34;;;10.55;73.19
18819;BME280;9537;45.594;9.294;2023-03-22T00:42:25;99592.41;;;10.50;73.47
18819;BME280;9537;45.594;9.294;2023-03-22T00:43:26;99599.34;;;10.51;73.44
18819;BME280;9537;45.594;9.294;2023-03-22T00:44:28;99592.41;;;10.50;73.43
18819;BME280;9537;45.594;9.294;2023-03-22T00:45:29;99592.59;;;10.48;73.56
18819;BME280;9537;45.594;9.294;2023-03-22T00:46:31;99592.59;;;10.48;73.62
18819;BME280;9537;45.594;9.294;2023-03-22T00:47:34;99595.38;;;10.47;73.54
18819;BME280;9537;45.594;9.294;2023-03-22T00:48:34;99591.28;;;10.44;73.75
18819;BME280;9537;45.594;9.294;2023-03-22T00:49:36;99593.59;;;10.47;74.03
18819;BME280;9537;45.594;9.294;2023-03-22T00:50:38;99584.66;;;10.48;74.09
18819;BME280;9537;45.594;9.294;2023-03-22T00:51:40;99587.13;;;10.50;73.91
18819;BME280;9537;45.594;9.294;2023-03-22T00:52:41;99584.13;;;10.53;73.86
18819;BME280;9537;45.594;9.294;2023-03-22T00:53:43;99583.97;;;10.54;73.83
18819;BME280;9537;45.594;9.294;2023-03-22T00:54:44;99579.50;;;10.55;73.76
18819;BME280;9537;45.594;9.294;2023-03-22T00:55:48;99584.63;;;10.56;73.94
18819;BME280;9537;45.594;9.294;2023-03-22T00:56:49;99579.50;;;10.55;73.64
18819;BME280;9537;45.594;9.294;2023-03-22T00:57:52;99583.16;;;10.54;73.58
18819;BME280;9537;45.594;9.294;2023-03-22T00:58:53;99587.97;;;10.50;73.55
18819;BME280;9537;45.594;9.294;2023-03-22T00:59:54;99579.38;;;10.48;73.79
18819;BME280;9537;45.594;9.294;2023-03-22T01:00:57;99580.09;;;10.42;73.67
18819;BME280;9537;45.594;9.294;2023-03-22T01:01:59;99584.19;;;10.45;73.76
18819;BME280;9537;45.594;9.294;2023-03-22T01:03:03;99581.25;;;10.40;73.81
18819;BME280;9537;45.594;9.294;2023-03-22T01:04:07;99581.44;;;10.30;74.25
18819;BME280;9537;45.594;9.294;2023-03-22T01:05:09;99577.16;;;10.29;74.38
18819;BME280;9537;45.594;9.294;2023-03-22T01:06:15;99578.81;;;10.30;74.40
18819;BME280;9537;45.594;9.294;2023-03-22T01:07:16;99574.38;;;10.30;74.42
18819;BME280;9537;45.594;9.294;2023-03-22T01:08:21;99579.81;;;10.29;74.36
18819;BME280;9537;45.594;9.294;2023-03-22T01:09:22;99577.84;;;10.31;74.67
18819;BME280;9537;45.594;9.294;2023-03-22T01:10:28;99575.81;;;10.33;74.85
18819;BME280;9537;45.594;9.294;2023-03-22T01:11:30;99576.13;;;10.38;74.62
18819;BME280;9537;45.594;9.294;2023-03-22T01:12:32;99569.53;;;10.42;74.47
18819;BME280;9537;45.594;9.294;2023-03-22T01:13:33;99562.41;;;10.43;74.65
18819;BME280;9537;45.594;9.294;2023-03-22T01:14:37;99569.69;;;10.41;74.30
18819;BME280;9537;45.594;9.294;2023-03-22T01:15:38;99568.88;;;10.40;74.30
18819;BME280;9537;45.594;9.294;2023-03-22T01:16:40;99564.09;;;10.35;74.11
18819;BME280;9537;45.594;9.294;2023-03-22T01:17:41;99563.47;;;10.33;74.13
18819;BME280;9537;45.594;9.294;2023-03-22T01:18:44;99562.16;;;10.29;74.18
18819;BME280;9537;45.594;9.294;2023-03-22T01:19:45;99565.78;;;10.28;74.39
18819;BME280;9537;45.594;9.294;2023-03-22T01:20:47;99568.75;;;10.25;73.89
18819;BME280;9537;45.594;9.294;2023-03-22T01:21:48;99563.81;;;10.22;73.98
18819;BME280;9537;45.594;9.294;2023-03-22T01:22:50;99563.97;;;10.21;74.23
18819;BME280;9537;45.594;9.294;2023-03-22T01:23:51;99567.28;;;10.23;74.19
18819;BME280;9537;45.594;9.294;2023-03-22T01:24:53;99565.50;;;10.15;74.53
18819;BME280;9537;45.594;9.294;2023-03-22T01:25:54;99566.81;;;10.19;74.53
18819;BME280;9537;45.594;9.294;2023-03-22T01:26:57;99570.41;;;10.18;74.80
18819;BME280;9537;45.594;9.294;2023-03-22T01:27:58;99571.59;;;10.15;74.96
18819;BME280;9537;45.594;9.294;2023-03-22T01:29:02;99569.13;;;10.14;75.03
18819;BME280;9537;45.594;9.294;2023-03-22T01:30:04;99567.50;;;10.13;74.96
18819;BME280;9537;45.594;9.294;2023-03-22T01:31:07;99568.94;;;10.15;74.99
18819;BME280;9537;45.594;9.294;2023-03-22T01:32:08;99565.50;;;10.15;74.80
18819;BME280;9537;45.594;9.294;2023-03-22T01:33:10;99571.13;;;10.12;74.75
18819;BME280;9537;45.594;9.294;2023-03-22T01:34:11;99568.47;;;10.12;74.75
18819;BME280;9537;45.594;9.294;2023-03-22T01:35:13;99567.81;;;10.10;74.69
18819;BME280;9537;45.594;9.294;2023-03-22T01:36:14;99567.66;;;10.11;74.98
18819;BME280;9537;45.594;9.294;2023-03-22T01:37:16;99569.47;;;10.11;74.94
18819;BME280;9537;45.594;9.294;2023-03-22T01:38:17;99569.13;;;10.14;74.34
18819;BME280;9537;45.594;9.294;2023-03-22T01:39:18;99573.59;;;10.13;74.24
18819;BME280;9537;45.594;9.294;2023-03-22T01:40:20;99565.84;;;10.12;74.24
18819;BME280;9537;45.594;9.294;2023-03-22T01:41:22;99569.63;;;10.09;74.42
18819;BME280;9537;45.594;9.294;2023-03-22T01:42:25;99571.13;;;10.12;74.16
18819;BME280;9537;45.594;9.294;2023-03-22T01:43:27;99567.50;;;10.13;74.33
18819;BME280;9537;45.594;9.294;2023-03-22T01:44:29;99566.19;;;10.09;74.31
18819;BME280;9537;45.594;9.294;2023-03-22T01:45:37;99566.38;;;10.07;74.40
18819;BME280;9537;45.594;9.294;2023-03-22T01:46:39;99568.34;;;10.05;74.56
18819;BME280;9537;45.594;9.294;2023-03-22T01:47:44;99562.06;;;10.06;74.54
18819;BME280;9537;45.594;9.294;2023-03-22T01:48:46;99567.81;;;10.10;74.34
18819;BME280;9537;45.594;9.294;2023-03-22T01:49:49;99566.84;;;10.11;74.46
18819;BME280;9537;45.594;9.294;2023-03-22T01:50:57;99567.66;;;10.11;74.24
18819;BME280;9537;45.594;9.294;2023-03-22T01:52:05;99569.00;;;10.07;74.33
18819;BME280;9537;45.594;9.294;2023-03-22T01:53:10;99562.88;;;10.07;74.46
18819;BME280;9537;45.594;9.294;2023-03-22T01:54:16;99567.53;;;10.05;74.55
18819;BME280;9537;45.594;9.294;2023-03-22T01:55:20;99569.84;;;10.00;74.89
18819;BME280;9537;45.594;9.294;2023-03-22T01:56:24;99566.25;;;9.92;75.28
18819;BME280;9537;45.594;9.294;2023-03-22T01:57:28;99572.19;;;9.86;75.13
18819;BME280;9537;45.594;9.294;2023-03-22T01:58:35;99572.38;;;9.85;75.56
18819;BME280;9537;45.594;9.294;2023-03-22T01:59:39;99576.19;;;9.82;75.72
18819;BME280;9537;45.594;9.294;2023-03-22T02:00:40;99569.41;;;9.88;75.10
18819;BME280;9537;45.594;9.294;2023-03-22T02:01:42;99564.75;;;9.90;75.13
18819;BME280;9537;45.594;9.294;2023-03-22T02:02:48;99560.16;;;9.92;75.08
18819;BME280;9537;45.594;9.294;2023-03-22T02:03:54;99564.13;;;9.88;75.04
18819;BME280;9537;45.594;9.294;2023-03-22T02:05:00;99563.13;;;9.89;75.07
18819;BME280;9537;45.594;9.294;2023-03-22T02:06:01;99565.28;;;9.85;75.05
18819;BME280;9537;45.594;9.294;2023-03-22T02:07:06;99558.69;;;9.81;75.47
18819;BME280;9537;45.594;9.294;2023-03-22T02:08:09;99563.00;;;9.82;75.26
18819;BME280;9537;45.594;9.294;2023-03-22T02:09:15;99563.00;;;9.82;75.60
18819;BME280;9537;45.594;9.294;2023-03-22T02:10:19;99569.59;;;9.78;75.50
18819;BME280;9537;45.594;9.294;2023-03-22T02:11:28;99570.91;;;9.82;75.38
18819;BME280;9537;45.594;9.294;2023-03-22T02:12:40;99569.25;;;9.81;75.69
18819;BME280;9537;45.594;9.294;2023-03-22T02:13:59;99566.94;;;9.78;75.85
18819;BME280;9537;45.594;9.294;2023-03-22T02:15:09;99569.59;;;9.78;75.81
18819;BME280;9537;45.594;9.294;2023-03-22T02:16:25;99568.94;;;9.76;75.93
18819;BME280;9537;45.594;9.294;2023-03-22T02:17:33;99572.22;;;9.78;76.30
18819;BME280;9537;45.594;9.294;2023-03-22T02:18:51;99574.53;;;9.81;76.08
18819;BME280;9537;45.594;9.294;2023-03-22T02:21:55;99562.69;;;9.77;75.67
18819;BME280;9537;45.594;9.294;2023-03-22T02:23:25;99571.94;;;9.73;76.32
18819;BME280;9537;45.594;9.294;2023-03-22T02:25:03;99570.25;;;9.72;75.93
18819;BME280;9537;45.594;9.294;2023-03-22T02:26:42;99572.75;;;9.65;75.95
18819;BME280;9537;45.594;9.294;2023-03-22T02:28:07;99569.13;;;9.66;75.83
18819;BME280;9537;45.594;9.294;2023-03-22T02:29:16;99567.66;;;9.64;75.76
18819;BME280;9537;45.594;9.294;2023-03-22T02:30:50;99573.78;;;9.64;76.08
18819;BME280;9537;45.594;9.294;2023-03-22T02:32:11;99571.44;;;9.61;76.07
18819;BME280;9537;45.594;9.294;2023-03-22T02:33:35;99569.47;;;9.63;75.88
18819;BME280;9537;45.594;9.294;2023-03-22T02:36:30;99570.81;;;9.59;75.71
18819;BME280;9537;45.594;9.294;2023-03-22T02:39:30;99567.19;;;9.52;75.81
18819;BME280;9537;45.594;9.294;2023-03-22T02:40:36;99564.22;;;9.55;75.93
18819;BME280;9537;45.594;9.294;2023-03-22T02:41:53;99568.31;;;9.58;75.94
18819;BME280;9537;45.594;9.294;2023-03-22T02:43:01;99564.38;;;9.62;76.06
18819;BME280;9537;45.594;9.294;2023-03-22T02:44:10;99564.19;;;9.63;75.74
18819;BME280;9537;45.594;9.294;2023-03-22T02:45:17;99564.66;;;9.67;75.77
18819;BME280;9537;45.594;9.294;2023-03-22T02:46:31;99563.34;;;9.71;75.26
18819;BME280;9537;45.594;9.294;2023-03-22T02:47:38;99565.34;;;9.69;75.60
18819;BME280;9537;45.594;9.294;2023-03-22T02:48:51;99574.25;;;9.68;75.60
18819;BME280;9537;45.594;9.294;2023-03-22T02:49:55;99567.31;;;9.67;76.15
18819;BME280;9537;45.594;9.294;2023-03-22T02:51:02;99573.78;;;9.64;75.74
18819;BME280;9537;45.594;9.294;2023-03-22T02:52:10;99571.28;;;9.63;75.95
18819;BME280;9537;45.594;9.294;2023-03-22T02:53:20;99574.06;;;9.61;75.78
18819;BME280;9537;45.594;9.294;2023-03-22T02:54:27;99569.66;;;9.62;75.88
18819;BME280;9537;45.594;9.294;2023-03-22T02:55:33;99562.72;;;9.61;76.06
18819;BME280;9537;45.594;9.294;2023-03-22T02:56:39;99570.16;;;9.57;76.07
18819;BME280;9537;45.594;9.294;2023-03-22T02:57:45;99572.97;;;9.56;76.26
18819;BME280;9537;45.594;9.294;2023-03-22T02:58:51;99570.34;;;9.56;76.16
18819;BME280;9537;45.594;9.294;2023-03-22T02:59:54;99570.63;;;9.53;76.45
18819;BME280;9537;45.594;9.294;2023-03-22T03:01:00;99572.63;;;9.51;76.26
18819;BME280;9537;45.594;9.294;2023-03-22T03:02:08;99570.81;;;9.51;76.51
18819;BME280;9537;45.594;9.294;2023-03-22T03:03:12;99570.97;;;9.50;76.40
18819;BME280;9537;45.594;9.294;2023-03-22T03:04:20;99562.44;;;9.47;76.77
18819;BME280;9537;45.594;9.294;2023-03-22T03:05:23;99567.53;;;9.49;76.27
18819;BME280;9537;45.594;9.294;2023-03-22T03:06:28;99571.63;;;9.52;76.29
18819;BME280;9537;45.594;9.294;2023-03-22T03:07:32;99571.31;;;9.46;76.22
18819;BME280;9537;45.594;9.294;2023-03-22T03:08:36;99564.75;;;9.42;76.60
18819;BME280;9537;45.594;9.294;2023-03-22T03:09:40;99565.06;;;9.47;76.32
18819;BME280;9537;45.594;9.294;2023-03-22T03:10:44;99563.41;;;9.46;76.40
18819;BME280;9537;45.594;9.294;2023-03-22T03:11:47;99564.75;;;9.42;76.14
18819;BME280;9537;45.594;9.294;2023-03-22T03:12:49;99567.38;;;9.42;76.71
18819;BME280;9537;45.594;9.294;2023-03-22T03:13:50;99575.97;;;9.36;76.84
18819;BME280;9537;45.594;9.294;2023-03-22T03:14:53;99569.03;;;9.35;76.73
18819;BME280;9537;45.594;9.294;2023-03-22T03:15:56;99575.97;;;9.36;76.86
18819;BME280;9537;45.594;9.294;2023-03-22T03:17:08;99574.28;;;9.35;76.24
18819;BME280;9537;45.594;9.294;2023-03-22T03:18:29;99572.66;;;9.34;76.66
18819;BME280;9537;45.594;9.294;2023-03-22T03:19:40;99568.53;;;9.32;76.78
18819;BME280;9537;45.594;9.294;2023-03-22T03:20:50;99573.31;;;9.28;76.66
18819;BME280;9537;45.594;9.294;2023-03-22T03:22:00;99571.19;;;9.32;77.08
18819;BME280;9537;45.594;9.294;2023-03-22T03:23:12;99573.16;;;9.30;76.39
18819;BME280;9537;45.594;9.294;2023-03-22T03:24:22;99567.88;;;9.30;76.54
18819;BME280;9537;45.594;9.294;2023-03-22T03:25:33;99573.00;;;9.31;76.79
18819;BME280;9537;45.594;9.294;2023-03-22T03:26:42;99566.72;;;9.24;76.80
18819;BME280;9537;45.594;9.294;2023-03-22T03:27:51;99573.19;;;9.21;77.04
18819;BME280;9537;45.594;9.294;2023-03-22T03:29:00;99573.34;;;9.20;77.48
18819;BME280;9537;45.594;9.294;2023-03-22T03:30:07;99575.16;;;9.19;77.49
18819;BME280;9537;45.594;9.294;2023-03-22T03:31:19;99583.53;;;9.15;77.33
18819;BME280;9537;45.594;9.294;2023-03-22T03:32:27;99572.84;;;9.16;77.53
18819;BME280;9537;45.594;9.294;2023-03-22T03:33:38;99579.59;;;9.19;77.25
18819;BME280;9537;45.594;9.294;2023-03-22T03:34:46;99575.63;;;9.15;77.21
18819;BME280;9537;45.594;9.294;2023-03-22T03:35:54;99577.44;;;9.14;77.49
18819;BME280;9537;45.594;9.294;2023-03-22T03:37:02;99574.16;;;9.12;77.81
18819;BME280;9537;45.594;9.294;2023-03-22T03:38:07;99575.97;;;9.12;77.52
18819;BME280;9537;45.594;9.294;2023-03-22T03:39:13;99577.44;;;9.14;77.90
18819;BME280;9537;45.594;9.294;2023-03-22T03:40:18;99583.53;;;9.15;77.74
18819;BME280;9537;45.594;9.294;2023-03-22T03:41:25;99576.97;;;9.19;77.45
18819;BME280;9537;45.594;9.294;2023-03-22T03:42:28;99578.28;;;9.15;77.51
18819;BME280;9537;45.594;9.294;2023-03-22T03:43:32;99587.16;;;9.14;77.26
18819;BME280;9537;45.594;9.294;2023-03-22T03:44:35;99587.16;;;9.14;76.83
18819;BME280;9537;45.594;9.294;2023-03-22T03:45:37;99593.09;;;9.16;77.35
18819;BME280;9537;45.594;9.294;2023-03-22T03:46:39;99581.72;;;9.15;77.35
18819;BME280;9537;45.594;9.294;2023-03-22T03:47:43;99584.88;;;9.19;77.21
18819;BME280;9537;45.594;9.294;2023-03-22T03:48:47;99582.56;;;9.16;76.84
18819;BME280;9537;45.594;9.294;2023-03-22T03:49:50;99582.38;;;9.17;77.07
18819;BME280;9537;45.594;9.294;2023-03-22T03:50:53;99580.91;;;9.23;76.96
18819;BME280;9537;45.594;9.294;2023-03-22T03:51:58;99580.56;;;9.26;76.48
18819;BME280;9537;45.594;9.294;2023-03-22T03:52:59;99582.06;;;9.29;76.85
18819;BME280;9537;45.594;9.294;2023-03-22T03:54:01;99584.03;;;9.27;76.76
18819;BME280;9537;45.594;9.294;2023-03-22T03:55:03;99575.16;;;9.19;76.15
18819;BME280;9537;45.594;9.294;2023-03-22T03:56:06;99587.00;;;9.15;77.06
18819;BME280;9537;45.594;9.294;2023-03-22T03:57:08;99587.16;;;9.14;77.14
18819;BME280;9537;45.594;9.294;2023-03-22T03:58:11;99582.38;;;9.09;76.42
18819;BME280;9537;45.594;9.294;2023-03-22T03:59:12;99584.38;;;9.07;77.18
18819;BME280;9537;45.594;9.294;2023-03-22T04:00:16;99586.34;;;9.13;76.37
18819;BME280;9537;45.594;9.294;2023-03-22T04:01:18;99587.03;;;9.07;76.24
18819;BME280;9537;45.594;9.294;2023-03-22T04:02:21;99580.25;;;9.05;76.44
18819;BME280;9537;45.594;9.294;2023-03-22T04:03:22;99577.44;;;8.98;76.72
18819;BME280;9537;45.594;9.294;2023-03-22T04:04:26;99582.38;;;9.01;76.87
18819;BME280;9537;45.594;9.294;2023-03-22T04:05:28;99579.25;;;8.97;76.28
18819;BME280;9537;45.594;9.294;2023-03-22T04:06:30;99587.97;;;8.98;76.96
18819;BME280;9537;45.594;9.294;2023-03-22T04:07:34;99582.38;;;9.01;76.74
18819;BME280;9537;45.594;9.294;2023-03-22T04:08:36;99590.94;;;9.03;76.38
18819;BME280;9537;45.594;9.294;2023-03-22T04:09:38;99586.16;;;8.98;75.92
18819;BME280;9537;45.594;9.294;2023-03-22T04:10:40;99589.81;;;9.06;76.28
18819;BME280;9537;45.594;9.294;2023-03-22T04:11:41;99594.06;;;9.07;75.48
18819;BME280;9537;45.594;9.294;2023-03-22T04:12:45;99594.72;;;9.00;76.02
18819;BME280;9537;45.594;9.294;2023-03-22T04:13:46;99593.56;;;8.95;76.17
18819;BME280;9537;45.594;9.294;2023-03-22T04:14:48;99596.88;;;8.89;76.23
18819;BME280;9537;45.594;9.294;2023-03-22T04:15:51;99591.44;;;8.82;77.04
18819;BME280;9537;45.594;9.294;2023-03-22T04:16:54;99596.84;;;8.80;76.92
18819;BME280;9537;45.594;9.294;2023-03-22T04:17:55;99596.53;;;8.84;76.72
18819;BME280;9537;45.594;9.294;2023-03-22T04:18:58;99597.69;;;8.81;76.55
18819;BME280;9537;45.594;9.294;2023-03-22T04:19:59;99590.44;;;8.83;76.31
18819;BME280;9537;45.594;9.294;2023-03-22T04:21:04;99600.31;;;8.81;76.89
18819;BME280;9537;45.594;9.294;2023-03-22T04:22:05;99600.97;;;8.75;76.63
18819;BME280;9537;45.594;9.294;2023-03-22T04:23:14;99595.06;;;8.73;76.78
18819;BME280;9537;45.594;9.294;2023-03-22T04:24:15;99598.97;;;8.69;77.17
18819;BME280;9537;45.594;9.294;2023-03-22T04:25:17;99598.16;;;8.68;77.67
18819;BME280;9537;45.594;9.294;2023-03-22T04:26:18;99590.25;;;8.60;77.81
18819;BME280;9537;45.594;9.294;2023-03-22T04:27:20;99599.28;;;8.57;77.69
18819;BME280;9537;45.594;9.294;2023-03-22T04:28:23;99596.97;;;8.54;77.63
18819;BME280;9537;45.594;9.294;2023-03-22T04:29:25;99593.69;;;8.52;77.96
18819;BME280;9537;45.594;9.294;2023-03-22T04:30:26;99591.69;;;8.46;78.46
18819;BME280;9537;45.594;9.294;2023-03-22T04:31:31;99595.31;;;8.45;78.31
18819;BME280;9537;45.594;9.294;2023-03-22T04:32:33;99590.41;;;8.50;78.02
18819;BME280;9537;45.594;9.294;2023-03-22T04:33:35;99594.00;;;8.49;77.72
18819;BME280;9537;45.594;9.294;2023-03-22T04:34:38;99596.31;;;8.44;78.17
18819;BME280;9537;45.594;9.294;2023-03-22T04:35:41;99595.81;;;8.49;78.45
18819;BME280;9537;45.594;9.294;2023-03-22T04:36:41;99593.06;;;8.59;77.87
18819;BME280;9537;45.594;9.294;2023-03-22T04:37:44;99592.88;;;8.60;78.14
18819;BME280;9537;45.594;9.294;2023-03-22T04:38:46;99586.63;;;8.61;78.02
18819;BME280;9537;45.594;9.294;2023-03-22T04:39:47;99587.78;;;8.59;78.05
18819;BME280;9537;45.594;9.294;2023-03-22T04:40:49;99591.72;;;8.54;78.28
18819;BME280;9537;45.594;9.294;2023-03-22T04:41:50;99589.06;;;8.54;78.54
18819;BME280;9537;45.594;9.294;2023-03-22T04:42:52;99587.25;;;8.55;78.33
18819;BME280;9537;45.594;9.294;2023-03-22T04:43:58;99586.63;;;8.53;78.73
18819;BME280;9537;45.594;9.294;2023-03-22T04:45:03;99581.38;;;8.53;78.18
18819;BME280;9537;45.594;9.294;2023-03-22T04:46:05;99587.25;;;8.55;78.10
18819;BME280;9537;45.594;9.294;2023-03-22T04:47:09;99588.94;;;8.56;78.94
18819;BME280;9537;45.594;9.294;2023-03-22T04:48:10;99590.53;;;8.49;78.68
18819;BME280;9537;45.594;9.294;2023-03-22T04:49:13;99591.03;;;8.52;78.30
18819;BME280;9537;45.594;9.294;2023-03-22T04:50:14;99588.94;;;8.56;78.04
18819;BME280;9537;45.594;9.294;2023-03-22T04:51:16;99588.09;;;8.55;78.35
18819;BME280;9537;45.594;9.294;2023-03-22T04:52:17;99594.53;;;8.53;77.58
18819;BME280;9537;45.594;9.294;2023-03-22T04:53:19;99592.03;;;8.51;78.20
18819;BME280;9537;45.594;9.294;2023-03-22T04:54:26;99588.59;;;8.51;77.55
18819;BME280;9537;45.594;9.294;2023-03-22T04:55:28;99584.13;;;8.51;78.07
18819;BME280;9537;45.594;9.294;2023-03-22T04:56:29;99584.97;;;8.52;77.96
18819;BME280;9537;45.594;9.294;2023-03-22T04:57:31;99586.44;;;8.54;77.65
18819;BME280;9537;45.594;9.294;2023-03-22T04:58:36;99590.91;;;8.54;77.51
18819;BME280;9537;45.594;9.294;2023-03-22T04:59:41;99586.44;;;8.54;77.53
18819;BME280;9537;45.594;9.294;2023-03-22T05:00:42;99587.25;;;8.55;77.36
18819;BME280;9537;45.594;9.294;2023-03-22T05:01:45;99586.78;;;8.60;77.08
18819;BME280;9537;45.594;9.294;2023-03-22T05:02:46;99582.34;;;8.60;77.38
18819;BME280;9537;45.594;9.294;2023-03-22T05:03:49;99588.28;;;8.62;77.25
18819;BME280;9537;45.594;9.294;2023-03-22T05:04:50;99585.78;;;8.61;76.93
18819;BME280;9537;45.594;9.294;2023-03-22T05:05:53;99589.91;;;8.55;76.89
18819;BME280;9537;45.594;9.294;2023-03-22T05:06:54;99583.47;;;8.49;76.74
18819;BME280;9537;45.594;9.294;2023-03-22T05:07:58;99588.72;;;8.49;77.29
18819;BME280;9537;45.594;9.294;2023-03-22T05:08:59;99582.66;;;8.49;76.64
18819;BME280;9537;45.594;9.294;2023-03-22T05:10:01;99588.09;;;8.47;77.00
18819;BME280;9537;45.594;9.294;2023-03-22T05:11:05;99584.94;;;8.44;77.72
18819;BME280;9537;45.594;9.294;2023-03-22T05:12:08;99593.16;;;8.41;77.54
18819;BME280;9537;45.594;9.294;2023-03-22T05:13:08;99597.13;;;8.45;76.94
18819;BME280;9537;45.594;9.294;2023-03-22T05:14:10;99601.75;;;8.51;77.15
18819;BME280;9537;45.594;9.294;2023-03-22T05:15:13;99596.97;;;8.54;76.45
18819;BME280;9537;45.594;9.294;2023-03-22T05:16:15;99596.31;;;8.52;76.78
18819;BME280;9537;45.594;9.294;2023-03-22T05:17:16;99598.13;;;8.52;76.48
18819;BME280;9537;45.594;9.294;2023-03-22T05:18:19;99596.00;;;8.47;76.96
18819;BME280;9537;45.594;9.294;2023-03-22T05:19:20;99596.59;;;8.41;77.14
18819;BME280;9537;45.594;9.294;2023-03-22T05:20:24;99602.53;;;8.43;76.54
18819;BME280;9537;45.594;9.294;2023-03-22T05:21:25;99598.09;;;8.44;76.81
18819;BME280;9537;45.594;9.294;2023-03-22T05:22:28;99604.50;;;8.41;77.09
18819;BME280;9537;45.594;9.294;2023-03-22T05:23:29;99603.84;;;8.39;77.29
18819;BME280;9537;45.594;9.294;2023-03-22T05:24:31;99597.38;;;8.33;77.47
18819;BME280;9537;45.594;9.294;2023-03-22T05:25:32;99598.53;;;8.31;77.98
18819;BME280;9537;45.594;9.294;2023-03-22T05:26:34;99604.63;;;8.31;77.21
18819;BME280;9537;45.594;9.294;2023-03-22T05:27:37;99601.50;;;8.36;77.81
18819;BME280;9537;45.594;9.294;2023-03-22T05:28:39;99602.16;;;8.38;77.32
18819;BME280;9537;45.594;9.294;2023-03-22T05:29:40;99603.69;;;8.41;76.71
18819;BME280;9537;45.594;9.294;2023-03-22T05:30:46;99600.59;;;8.45;76.73
18819;BME280;9537;45.594;9.294;2023-03-22T05:31:47;99605.97;;;8.35;77.40
18819;BME280;9537;45.594;9.294;2023-03-22T05:32:49;99609.06;;;8.31;76.96
18819;BME280;9537;45.594;9.294;2023-03-22T05:33:51;99611.50;;;8.32;76.71
18819;BME280;9537;45.594;9.294;2023-03-22T05:34:53;99609.13;;;8.39;76.41
18819;BME280;9537;45.594;9.294;2023-03-22T05:35:54;99611.88;;;8.38;76.56
18819;BME280;9537;45.594;9.294;2023-03-22T05:36:56;99616.47;;;8.35;76.48
18819;BME280;9537;45.594;9.294;2023-03-22T05:38:00;99615.31;;;8.30;76.79
18819;BME280;9537;45.594;9.294;2023-03-22T05:39:01;99618.22;;;8.27;77.31
18819;BME280;9537;45.594;9.294;2023-03-22T05:40:05;99615.91;;;8.24;77.44
18819;BME280;9537;45.594;9.294;2023-03-22T05:41:09;99625.13;;;8.20;77.38
18819;BME280;9537;45.594;9.294;2023-03-22T05:42:11;99624.00;;;8.22;78.02
18819;BME280;9537;45.594;9.294;2023-03-22T05:43:13;99625.31;;;8.26;77.54
18819;BME280;9537;45.594;9.294;2023-03-22T05:44:15;99620.38;;;8.23;77.10
18819;BME280;9537;45.594;9.294;2023-03-22T05:45:17;99618.88;;;8.21;77.61
18819;BME280;9537;45.594;9.294;2023-03-22T05:46:20;99624.31;;;8.19;78.02
18819;BME280;9537;45.594;9.294;2023-03-22T05:47:22;99625.13;;;8.20;78.36
18819;BME280;9537;45.594;9.294;2023-03-22T05:48:23;99620.38;;;8.23;78.18
18819;BME280;9537;45.594;9.294;2023-03-22T05:49:25;99624.00;;;8.22;78.39
18819;BME280;9537;45.594;9.294;2023-03-22T05:50:26;99624.81;;;8.23;78.88
18819;BME280;9537;45.594;9.294;2023-03-22T05:51:29;99624.81;;;8.23;78.77
18819;BME280;9537;45.594;9.294;2023-03-22T05:52:30;99623.66;;;8.25;78.99